Data for 12/06/2012

Time Sea-Level Adjusted Pressure Absolute Pressure Temperature Relative Humidity Dew Point   
(mb) (inHg) (mb) (inHg) (C) (F) (%) (C) (F)
00:05 1017 30.03 846 24.98 1.7 35 60 -5.3 22.4
00:10 1017 30.03 846 24.98 1.8 35.2 58 -5.6 21.9
00:15 1017 30.03 846 24.98 1.9 35.5 55 -6.2 20.9
00:20 1017 30.03 846 24.98 2 35.6 57 -5.5 22.1
00:25 1017 30.03 846 24.98 1.7 35 59 -5.5 22.2
00:30 1017 30.03 846 24.98 1.8 35.3 58 -5.5 22
00:35 1017 30.03 846 24.98 1.7 35 57 -5.9 21.4
00:40 1017 30.03 846 24.98 1.7 35.1 59 -5.5 22.1
00:45 1017 30.03 846 24.98 1.5 34.8 62 -4.9 23.1
00:50 1017 30.03 846 24.98 1.1 34 61 -5.6 21.9
00:55 1017 30.03 846 24.98 1.2 34.1 60 -5.7 21.8
01:00 1017 30.03 846 24.98 1.3 34.4 61 -5.4 22.2
01:05 1017 30.03 846 24.98 1.4 34.6 59 -5.6 21.9
01:10 1017 30.03 846 24.98 1.5 34.7 57 -6.1 21.1
01:15 1017 30.03 846 24.98 1.7 35 57 -6 21.3
01:20 1017 30.03 846 24.98 1.6 34.9 57 -6.1 21.1
01:25 1017 30.03 846 24.98 1.6 34.8 57 -6 21.2
01:30 1017 30.03 846 24.98 1.3 34.4 57 -6.3 20.6
01:35 1017 30.03 846 24.98 1.2 34.2 58 -6.2 20.8
01:40 1017 30.03 846 24.98 1.2 34.2 57 -6.3 20.7
01:45 1017 30.03 846 24.98 1.2 34.2 58 -6 21.1
01:50 1017 30.03 846 24.98 1.1 34 60 -5.8 21.6
01:55 1017 30.03 846 24.98 0.8 33.4 62 -5.8 21.6
02:00 1017 30.03 846 24.98 0.6 33 63 -5.7 21.7
02:05 1017 30.03 846 24.98 0.5 32.9 63 -5.7 21.8
02:10 1017 30.03 846 24.98 0.3 32.6 65 -5.5 22
02:15 1017 30.03 846 24.98 0.3 32.5 66 -5.4 22.3
02:20 1017 30.03 846 24.98 0.2 32.3 66 -5.4 22.3
02:25 1017 30.03 846 24.98 0 32.1 67 -5.4 22.3
02:30 1017 30.03 846 24.98 -0.1 31.9 66 -5.7 21.8
02:35 1017 30.03 846 24.98 -0.1 31.8 68 -5.4 22.2
02:40 1017 30.03 846 24.98 -0.4 31.3 68 -5.6 22
02:45 1017 30.03 846 24.98 -0.6 30.8 69 -5.6 22
02:50 1017 30.03 846 24.98 -1 30.3 72 -5.5 22.2
02:55 1017 30.03 846 24.98 -1.3 29.6 73 -5.6 22
03:00 1017 30.03 846 24.98 -1.5 29.3 73 -5.6 21.9
03:05 1017 30.03 846 24.98 -1.6 29.1 73 -5.8 21.5
03:10 1017 30.03 846 24.98 -1.4 29.5 72 -5.8 21.6
03:15 1017 30.03 846 24.98 -1.2 29.8 73 -5.5 22
03:20 1017 30.03 846 24.98 -1.3 29.6 75 -5.3 22.5
03:25 1017 30.03 846 24.98 -1.6 29.1 75 -5.5 22.1
03:30 1017 30.03 846 24.98 -1.4 29.5 72 -5.7 21.7
03:35 1017 30.03 846 24.98 -1.3 29.7 70 -6.1 21
03:40 1017 30.03 846 24.98 -1.1 30.1 71 -5.7 21.7
03:45 1017 30.03 846 24.98 -1.2 29.8 70 -6 21.2
03:50 1017 30.03 846 24.98 -1.1 30 68 -6.3 20.6
03:55 1017 30.03 846 24.98 -0.8 30.5 68 -5.9 21.3
04:00 1017 30.03 846 24.98 -0.9 30.3 68 -6 21.1
04:05 1017 30.03 846 24.98 -1 30.1 68 -6.2 20.8
04:10 1017 30.03 846 24.98 -1 30.1 69 -6 21.2
04:15 1017 30.03 846 24.98 -1.2 29.8 69 -6.2 20.8
04:20 1017 30.03 846 24.98 -1 30.2 68 -6.1 20.9
04:25 1017 30.03 846 24.98 -0.9 30.4 68 -6 21.1
04:30 1017 30.03 846 24.98 -1 30.2 71 -5.7 21.7
04:35 1017 30.03 846 24.98 -1.3 29.7 71 -5.8 21.6
04:40 1017 30.03 846 24.98 -1.4 29.5 73 -5.7 21.8
04:45 1017 30.03 846 24.98 -1.5 29.3 73 -5.7 21.7
04:50 1017 30.03 846 24.98 -1.6 29.1 72 -6 21.3
04:55 1017 30.03 846 24.98 -1.6 29.2 72 -6 21.3
05:00 1017 30.03 846 24.98 -1.5 29.3 71 -6 21.2
05:05 1017 30.03 846 24.98 -1.6 29.2 73 -5.7 21.7
05:10 1017 30.03 846 24.98 -1.7 28.9 74 -5.8 21.6
05:15 1017 30.03 846 24.98 -1.7 28.9 73 -5.9 21.4
05:20 1017 30.03 846 24.98 -1.6 29 72 -6 21.2
05:25 1017 30.03 846 24.98 -1.6 29.2 72 -6 21.2
05:30 1017 30.03 846 24.98 -1.4 29.5 71 -6 21.3
05:35 1017 30.03 846 24.98 -1.3 29.7 70 -6.1 21
05:40 1017 30.03 846 24.98 -1.3 29.7 71 -5.8 21.5
05:45 1017 30.03 846 24.98 -1.4 29.5 70 -6.1 21
05:50 1017 30.03 846 24.98 -1.4 29.4 70 -6.3 20.7
05:55 1017 30.03 846 24.98 -1.5 29.4 69 -6.4 20.5
06:00 1017 30.03 846 24.98 -1.5 29.2 69 -6.4 20.4
06:05 1017 30.03 846 24.98 -1.7 29 70 -6.5 20.4
06:10 1017 30.03 846 24.98 -1.7 28.9 69 -6.6 20
06:15 1017 30.03 846 24.98 -1.8 28.7 69 -6.8 19.7
06:20 1017 30.03 846 24.98 -1.9 28.5 72 -6.4 20.4
06:25 1017 30.03 846 24.98 -2.4 27.7 75 -6.3 20.7
06:30 1017 30.03 846 24.98 -2.5 27.5 73 -6.7 19.9
06:35 1017 30.03 846 24.98 -2.4 27.6 72 -6.9 19.6
06:40 1017 30.03 846 24.98 -2.4 27.6 72 -6.7 19.9
06:45 1017 30.03 846 24.98 -2.4 27.7 70 -7.1 19.2
06:50 1017 30.03 846 24.98 -2.3 27.9 72 -6.7 20
06:55 1017 30.03 846 24.98 -2.3 27.8 72 -6.6 20.1
07:00 1017 30.03 846 24.98 -2.3 27.9 69 -7.2 19.1
07:05 1017 30.03 846 24.98 -2.1 28.1 68 -7.3 18.8
07:10 1017 30.03 846 24.98 -2.1 28.3 67 -7.4 18.7
07:15 1017 30.03 846 24.98 -2 28.4 67 -7.4 18.7
07:20 1017 30.03 846 24.98 -2 28.4 68 -7.1 19.1
07:25 1017 30.03 846 24.98 -2.1 28.3 68 -7.2 19.1
07:30 1017 30.03 846 24.98 -2 28.4 69 -6.9 19.5
07:35 1017 30.03 846 24.98 -2.2 28 70 -7 19.3
07:40 1017 30.03 846 24.98 -2.5 27.5 73 -6.7 20
07:45 1016 30 846 24.98 -2.8 27 70 -7.6 18.4
07:50 1016 30 846 24.98 -2.7 27.2 71 -7.1 19.1
07:55 1016 30 846 24.98 -2.8 27 73 -6.9 19.6
08:00 1017 30.03 846 24.98 -3.1 26.5 74 -7 19.3
08:05 1017 30.03 846 24.98 -3.1 26.3 76 -6.9 19.7
08:10 1017 30.03 846 24.98 -3.1 26.4 75 -6.9 19.6
08:15 1017 30.03 846 24.98 -3.1 26.5 74 -7.1 19.3
08:20 1017 30.03 846 24.98 -3 26.6 73 -7.2 19.1
08:25 1017 30.03 846 24.98 -3 26.6 74 -7 19.4
08:30 1017 30.03 846 24.98 -3.1 26.4 75 -6.9 19.5
08:35 1017 30.03 846 24.98 -3.1 26.3 75 -6.9 19.5
08:40 1017 30.03 846 24.98 -3 26.7 74 -7 19.4
08:45 1017 30.03 846 24.98 -2.9 26.7 72 -7.2 19
08:50 1017 30.03 846 24.98 -2.8 27 73 -7.1 19.3
08:55 1017 30.03 846 24.98 -2.7 27.1 73 -7 19.4
09:00 1017 30.03 846 24.98 -2.7 27.1 72 -7.1 19.2
09:05 1017 30.03 846 24.98 -2.8 27 73 -6.9 19.6
09:10 1017 30.03 846 24.98 -3 26.6 75 -6.8 19.8
09:15 1017 30.03 846 24.98 -3.5 25.8 77 -6.9 19.5
09:20 1017 30.03 846 24.98 -3.6 25.6 77 -7 19.3
09:25 1017 30.03 846 24.98 -3.5 25.7 76 -7.1 19.2
09:30 1017 30.03 846 24.98 -3.5 25.8 76 -7.1 19.2
09:35 1017 30.03 846 24.98 -3.4 26 75 -7.2 19.1
09:40 1017 30.03 846 24.98 -3.4 25.9 75 -7.2 19
09:45 1017 30.03 846 24.98 -3.4 25.9 75 -7.2 19.1
09:50 1017 30.03 846 24.98 -3.3 26.1 76 -7 19.4
09:55 1017 30.03 846 24.98 -3.4 25.9 76 -7.1 19.3
10:00 1017 30.03 846 24.98 -3.1 26.4 75 -6.9 19.5
10:05 1017 30.03 846 24.98 -3.2 26.2 76 -6.8 19.7
10:10 1017 30.03 846 24.98 -3.4 25.9 76 -7 19.4
10:15 1017 30.03 846 24.98 -3.1 26.4 74 -7.1 19.2
10:20 1017 30.03 846 24.98 -2.9 26.9 71 -7.4 18.6
10:25 1017 30.03 846 24.98 -2.6 27.3 73 -6.7 19.9
10:30 1017 30.03 846 24.98 -2.6 27.3 74 -6.6 20.2
10:35 1017 30.03 846 24.98 -2.9 26.7 76 -6.6 20.2
10:40 1017 30.03 846 24.98 -2.9 26.8 75 -6.8 19.8
10:45 1017 30.03 846 24.98 -2.8 26.9 74 -6.8 19.8
10:50 1017 30.03 846 24.98 -2.7 27.1 73 -6.9 19.5
10:55 1017 30.03 846 24.98 -2.6 27.3 73 -6.8 19.8
11:00 1017 30.03 846 24.98 -2.5 27.5 74 -6.6 20.2
11:05 1017 30.03 846 24.98 -2.4 27.6 73 -6.6 20.1
11:10 1017 30.03 846 24.98 -2.3 27.8 72 -6.7 20
11:15 1017 30.03 846 24.98 -2.1 28.2 72 -6.5 20.2
11:20 1017 30.03 846 24.98 -2 28.4 72 -6.4 20.4
11:25 1017 30.03 846 24.98 -2.1 28.3 73 -6.4 20.5
11:30 1017 30.03 846 24.98 -1.9 28.5 70 -6.6 20.1
11:35 1017 30.03 846 24.98 -1.8 28.7 70 -6.7 20
11:40 1017 30.03 846 24.98 -1.7 29 68 -6.9 19.6
11:45 1017 30.03 846 24.98 -1.4 29.5 66 -6.9 19.5
11:50 1016 30 846 24.98 -1.3 29.6 67 -6.7 19.9
11:55 1017 30.03 846 24.98 -1.5 29.4 67 -6.7 19.9
12:00 1016 30 846 24.98 -1.4 29.4 66 -6.9 19.6
12:05 1016 30 846 24.98 -0.9 30.3 63 -7.1 19.3
12:10 1016 30 846 24.98 -0.7 30.8 62 -7 19.4
12:15 1016 30 846 24.98 -0.7 30.7 63 -6.9 19.5
12:20 1016 30 846 24.98 -0.7 30.8 62 -7.1 19.3
12:25 1016 30 845 24.95 -0.6 30.9 63 -6.8 19.7
12:30 1016 30 845 24.95 -0.4 31.2 63 -6.7 19.9
12:35 1016 30 845 24.95 -0.3 31.5 62 -6.6 20.1
12:40 1016 30 845 24.95 -0.3 31.4 63 -6.6 20.1
12:45 1016 30 845 24.95 -0.8 30.6 66 -6.3 20.7
12:50 1016 30 845 24.95 -0.7 30.8 64 -6.6 20.1
12:55 1016 30 845 24.95 -0.6 31 64 -6.6 20.1
13:00 1016 30 845 24.95 -0.7 30.8 65 -6.4 20.5
13:05 1015 29.97 845 24.95 -0.9 30.5 65 -6.7 20
13:10 1015 29.97 845 24.95 -0.7 30.8 65 -6.5 20.3
13:15 1015 29.97 845 24.95 -0.3 31.5 61 -6.8 19.7
13:20 1015 29.97 845 24.95 -0.4 31.3 64 -6.5 20.4
13:25 1015 29.97 844 24.92 -0.5 31.1 64 -6.6 20.2
13:30 1015 29.97 844 24.92 -0.3 31.5 62 -6.6 20.1
13:35 1015 29.97 844 24.92 -0.2 31.7 63 -6.5 20.3
13:40 1015 29.97 844 24.92 -0.6 30.9 64 -6.5 20.2
13:45 1015 29.97 844 24.92 -0.3 31.4 63 -6.6 20.2
13:50 1015 29.97 844 24.92 -0.1 31.8 62 -6.6 20.1
13:55 1015 29.97 844 24.92 -0.1 31.9 63 -6.3 20.6
14:00 1015 29.97 844 24.92 0.1 32.1 61 -6.6 20.1
14:05 1015 29.97 844 24.92 0.2 32.4 61 -6.5 20.3
14:10 1015 29.97 844 24.92 0.2 32.3 61 -6.6 20.2
14:15 1015 29.97 844 24.92 -0.1 31.9 61 -6.7 20
14:20 1015 29.97 844 24.92 -0 32 62 -6.4 20.5
14:25 1015 29.97 844 24.92 -0.4 31.3 64 -6.4 20.4
14:30 1015 29.97 844 24.92 -0.1 31.7 64 -6.2 20.9
14:35 1015 29.97 844 24.92 -0.1 31.8 63 -6.3 20.6
14:40 1015 29.97 844 24.92 -0.3 31.5 64 -6.2 20.9
14:45 1015 29.97 844 24.92 -0.2 31.7 64 -6.1 20.9
14:50 1015 29.97 844 24.92 -0.3 31.5 65 -6 21.1
14:55 1015 29.97 844 24.92 -0.5 31.2 65 -6.3 20.7
15:00 1015 29.97 844 24.92 -0.4 31.3 65 -6.3 20.7
15:05 1015 29.97 844 24.92 -0.3 31.5 65 -6.2 20.9
15:10 1015 29.97 844 24.92 -0.3 31.5 65 -6.2 20.9
15:15 1015 29.97 844 24.92 -0.3 31.5 65 -6.1 20.9
15:20 1015 29.97 844 24.92 -0.3 31.4 65 -6 21.1
15:25 1015 29.97 844 24.92 -0.3 31.4 66 -5.9 21.4
15:30 1015 29.97 844 24.92 -0.3 31.4 67 -5.7 21.8
15:35 1015 29.97 844 24.92 -0.4 31.4 67 -5.7 21.7
15:40 1015 29.97 844 24.92 -0.4 31.3 68 -5.6 21.9
15:45 1015 29.97 844 24.92 -0.5 31.1 69 -5.4 22.2
15:50 1015 29.97 844 24.92 -0.7 30.8 73 -4.9 23.2
15:55 1015 29.97 844 24.92 -0.8 30.6 74 -4.8 23.3
16:00 1015 29.97 844 24.92 -1 30.2 76 -4.7 23.6
16:05 1015 29.97 844 24.92 -1 30.1 76 -4.7 23.6
16:10 1015 29.97 844 24.92 -1.2 29.9 79 -4.4 24
16:15 1015 29.97 844 24.92 -1.3 29.6 81 -4.3 24.3
16:20 1015 29.97 844 24.92 -1.4 29.4 81 -4.3 24.2
16:25 1015 29.97 844 24.92 -1.5 29.2 83 -4.1 24.6
16:30 1015 29.97 844 24.92 -1.6 29.1 84 -4.1 24.7
16:35 1015 29.97 844 24.92 -1.7 29 84 -4 24.8
16:40 1015 29.97 844 24.92 -1.8 28.8 85 -4 24.9
16:45 1015 29.97 844 24.92 -1.9 28.6 85 -4.1 24.7
16:50 1014 29.94 844 24.92 -2.1 28.2 88 -3.9 25.1
16:55 1014 29.94 844 24.92 -2 28.4 88 -3.7 25.3
17:00 1014 29.94 844 24.92 -1.9 28.5 88 -3.7 25.4
17:05 1014 29.94 844 24.92 -2 28.5 89 -3.5 25.7
17:10 1014 29.94 844 24.92 -2 28.5 88 -3.6 25.5
17:15 1014 29.94 844 24.92 -2.2 28.1 89 -3.7 25.4
17:20 1014 29.94 844 24.92 -2.3 27.8 91 -3.6 25.5
17:25 1014 29.94 844 24.92 -2.3 27.8 91 -3.6 25.4
17:30 1014 29.94 844 24.92 -2.4 27.7 91 -3.7 25.3
17:35 1014 29.94 844 24.92 -2.3 27.8 92 -3.5 25.7
17:40 1014 29.94 844 24.92 -2.2 28 91 -3.5 25.7
17:45 1014 29.94 843 24.89 -2.4 27.8 92 -3.6 25.6
17:50 1014 29.94 843 24.89 -2.5 27.6 92 -3.6 25.5
17:55 1014 29.94 843 24.89 -2.5 27.6 92 -3.6 25.4
18:00 1014 29.94 843 24.89 -2.5 27.5 92 -3.6 25.6
18:05 1014 29.94 843 24.89 -2.5 27.4 93 -3.6 25.6
18:10 1014 29.94 843 24.89 -2.5 27.5 92 -3.6 25.5
18:15 1014 29.94 843 24.89 -2.6 27.3 93 -3.5 25.7
18:20 1014 29.94 843 24.89 -2.7 27.2 93 -3.6 25.5
18:25 1014 29.94 843 24.89 -2.7 27.1 93 -3.7 25.4
18:30 1014 29.94 843 24.89 -2.9 26.8 94 -3.8 25.1
18:35 1014 29.94 843 24.89 -3 26.6 94 -3.8 25.1
18:40 1014 29.94 843 24.89 -2.9 26.7 94 -3.8 25.2
18:45 1014 29.94 843 24.89 -2.8 26.9 95 -3.6 25.5
18:50 1014 29.94 843 24.89 -2.7 27.2 94 -3.5 25.7
18:55 1014 29.94 843 24.89 -2.7 27.2 94 -3.5 25.7
19:00 1014 29.94 843 24.89 -2.7 27.2 94 -3.5 25.7
19:05 1014 29.94 843 24.89 -2.7 27.2 95 -3.4 25.8
19:10 1014 29.94 843 24.89 -2.6 27.3 94 -3.4 25.9
19:15 1014 29.94 843 24.89 -2.6 27.3 95 -3.4 26
19:20 1014 29.94 843 24.89 -2.5 27.5 95 -3.3 26.1
19:25 1014 29.94 843 24.89 -2.5 27.6 95 -3.2 26.2
19:30 1014 29.94 843 24.89 -2.4 27.6 94 -3.2 26.2
19:35 1014 29.94 843 24.89 -2.5 27.5 94 -3.3 26
19:40 1014 29.94 843 24.89 -2.5 27.5 94 -3.3 26.1
19:45 1014 29.94 843 24.89 -2.5 27.5 94 -3.3 26
19:50 1014 29.94 843 24.89 -2.5 27.5 94 -3.3 26.1
19:55 1014 29.94 843 24.89 -2.5 27.5 95 -3.2 26.2
20:00 1014 29.94 843 24.89 -2.5 27.6 95 -3.2 26.2
20:05 1014 29.94 843 24.89 -2.5 27.6 95 -3.2 26.2
20:10 1014 29.94 843 24.89 -2.5 27.6 94 -3.2 26.2
20:15 1014 29.94 843 24.89 -2.5 27.5 95 -3.2 26.2
20:20 1014 29.94 843 24.89 -2.5 27.6 94 -3.2 26.2
20:25 1014 29.94 843 24.89 -2.5 27.5 94 -3.3 26
20:30 1014 29.94 843 24.89 -2.6 27.4 94 -3.3 26
20:35 1014 29.94 843 24.89 -2.6 27.3 95 -3.3 26
20:40 1014 29.94 843 24.89 -2.6 27.3 94 -3.4 25.8
20:45 1014 29.94 843 24.89 -2.7 27.1 94 -3.5 25.7
20:50 1014 29.94 843 24.89 -2.7 27.1 95 -3.5 25.7
20:55 1014 29.94 843 24.89 -2.7 27.1 95 -3.4 25.8
21:00 1014 29.94 843 24.89 -2.8 27.1 95 -3.5 25.7
21:05 1014 29.94 843 24.89 -2.7 27.1 95 -3.5 25.7
21:10 1014 29.94 843 24.89 -2.7 27.1 95 -3.5 25.7
21:15 1014 29.94 843 24.89 -2.8 27 95 -3.5 25.7
21:20 1014 29.94 843 24.89 -2.7 27.1 95 -3.5 25.7
21:25 1014 29.94 843 24.89 -2.7 27.1 95 -3.5 25.8
21:30 1014 29.94 843 24.89 -2.7 27.1 95 -3.5 25.7
21:35 1014 29.94 843 24.89 -2.8 27 95 -3.5 25.7
21:40 1014 29.94 843 24.89 -2.8 26.9 95 -3.6 25.6
21:45 1014 29.94 843 24.89 -2.8 26.9 95 -3.6 25.6
21:50 1014 29.94 843 24.89 -2.8 27 95 -3.5 25.7
21:55 1014 29.94 843 24.89 -2.7 27.2 95 -3.4 25.9
22:00 1014 29.94 843 24.89 -2.7 27.2 95 -3.4 25.8
22:05 1014 29.94 843 24.89 -2.6 27.2 94 -3.4 25.8
22:10 1014 29.94 843 24.89 -2.6 27.2 94 -3.5 25.8
22:15 1014 29.94 843 24.89 -2.7 27.2 94 -3.5 25.7
22:20 1014 29.94 843 24.89 -2.7 27.1 94 -3.5 25.6
22:25 1014 29.94 843 24.89 -2.8 27 94 -3.6 25.6
22:30 1014 29.94 843 24.89 -2.7 27.1 94 -3.5 25.7
22:35 1014 29.94 843 24.89 -2.7 27.1 94 -3.5 25.7
22:40 1014 29.94 843 24.89 -2.8 26.9 94 -3.6 25.5
22:45 1014 29.94 843 24.89 -2.9 26.8 94 -3.7 25.4
22:50 1014 29.94 843 24.89 -3 26.7 95 -3.7 25.4
22:55 1014 29.94 843 24.89 -3 26.7 95 -3.7 25.4
23:00 1014 29.94 843 24.89 -3 26.6 94 -3.7 25.3
23:05 1014 29.94 843 24.89 -3 26.6 94 -3.8 25.1
23:10 1014 29.94 843 24.89 -3 26.6 94 -3.9 25
23:15 1014 29.94 843 24.89 -3.1 26.5 93 -4.1 24.7
23:20 1014 29.94 843 24.89 -3.1 26.4 93 -4.1 24.6
23:25 1014 29.94 843 24.89 -3.1 26.5 92 -4.2 24.4
23:30 1014 29.94 843 24.89 -3 26.6 92 -4.2 24.5
23:35 1014 29.94 843 24.89 -3 26.6 92 -4.2 24.4
23:40 1014 29.94 843 24.89 -3 26.6 93 -4 24.8
23:45 1014 29.94 843 24.89 -3.1 26.4 95 -3.9 25
23:50 1014 29.94 843 24.89 -3.3 26.1 95 -3.9 24.9
23:55 1014 29.94 843 24.89 -3.4 25.9 96 -4 24.9
24:00 1014 29.94 843 24.89 -3.4 25.9 96 -3.9 24.9